Time;durP1;ratioP1;P1;durP2;ratioP2;P2;SDS_P1;SDS_P2;PMS_P1;PMS_P2;Temp;Humidity;BMP_temperature;BMP_pressure;BME280_temperature;BME280_humidity;BME280_pressure;Samples;Min_cycle;Max_cycle;Signal;HPM_P1;HPM_P2
2023/10/01 00:00:05;;;;;;;0.10;0.10;;;;;;;;;;5124255;27;20090;-51
2023/10/01 00:02:32;;;;;;;0.10;0.10;;;;;;;;;;5141657;27;20053;-52
2023/10/01 00:04:57;;;;;;;0.10;0.10;;;;;;;;;;5152854;27;20039;-50
2023/10/01 00:07:23;;;;;;;0.10;0.10;;;;;;;;;;5133208;28;20482;-51
2023/10/01 00:09:49;;;;;;;0.10;0.10;;;;;;;;;;5132769;28;20043;-51
2023/10/01 00:12:15;;;;;;;0.10;0.10;;;;;;;;;;5132755;28;20043;-52
2023/10/01 00:14:40;;;;;;;0.17;0.17;;;;;;;;;;5132183;28;20130;-50
2023/10/01 00:17:06;;;;;;;0.10;0.10;;;;;;;;;;5132352;28;20079;-52
2023/10/01 00:19:33;;;;;;;0.10;0.10;;;;;;;;;;5131627;28;20100;-52
2023/10/01 00:22:00;;;;;;;0.10;0.10;;;;;;;;;;5131919;28;20071;-51
2023/10/01 00:24:25;;;;;;;0.10;0.10;;;;;;;;;;5132324;28;20399;-51
2023/10/01 00:26:51;;;;;;;0.10;0.10;;;;;;;;;;5132174;28;20506;-51
2023/10/01 00:29:17;;;;;;;0.10;0.10;;;;;;;;;;5131285;28;20107;-51
2023/10/01 00:31:43;;;;;;;0.10;0.10;;;;;;;;;;5132755;28;20043;-52
2023/10/01 00:34:09;;;;;;;0.10;0.10;;;;;;;;;;5132022;28;20419;-51
2023/10/01 00:36:35;;;;;;;0.10;0.10;;;;;;;;;;5131695;28;20047;-51
2023/10/01 00:39:02;;;;;;;0.10;0.10;;;;;;;;;;5132178;28;20047;-52
2023/10/01 00:41:28;;;;;;;0.10;0.10;;;;;;;;;;5131104;28;20078;-52
2023/10/01 00:43:55;;;;;;;0.10;0.10;;;;;;;;;;5130645;27;20050;-51
2023/10/01 00:46:21;;;;;;;0.10;0.10;;;;;;;;;;5131419;28;20548;-52
2023/10/01 00:48:48;;;;;;;0.10;0.10;;;;;;;;;;5130828;27;20275;-51
2023/10/01 00:51:14;;;;;;;0.10;0.10;;;;;;;;;;5131708;28;20047;-52
2023/10/01 00:53:40;;;;;;;0.10;0.10;;;;;;;;;;5131346;28;20086;-51
2023/10/01 00:56:05;;;;;;;0.10;0.10;;;;;;;;;;5130818;28;20051;-52
2023/10/01 00:58:31;;;;;;;0.10;0.10;;;;;;;;;;5131393;27;20536;-51
2023/10/01 01:00:56;;;;;;;0.10;0.10;;;;;;;;;;5152300;27;20047;-50
2023/10/01 01:03:22;;;;;;;0.10;0.10;;;;;;;;;;5151743;27;20058;-52
2023/10/01 01:06:22;;;;;;;0.20;0.20;;;;;;;;;;5140864;27;20074;-52
2023/10/01 01:08:46;;;;;;;0.13;0.13;;;;;;;;;;5115950;28;20091;-51
2023/10/01 01:11:15;;;;;;;0.10;0.10;;;;;;;;;;5131462;28;20054;-52
2023/10/01 01:13:41;;;;;;;0.10;0.10;;;;;;;;;;5131227;28;20051;-51
2023/10/01 01:16:07;;;;;;;0.10;0.10;;;;;;;;;;5130816;28;20047;-51
2023/10/01 01:18:36;;;;;;;0.10;0.10;;;;;;;;;;5130822;28;20047;-51
2023/10/01 01:21:09;;;;;;;0.10;0.10;;;;;;;;;;5131298;28;20051;-52
2023/10/01 01:23:35;;;;;;;0.10;0.10;;;;;;;;;;5131591;28;20093;-52
2023/10/01 01:26:01;;;;;;;0.10;0.10;;;;;;;;;;5131763;28;20410;-52
2023/10/01 01:28:30;;;;;;;0.10;0.10;;;;;;;;;;5131506;28;20047;-52
2023/10/01 01:30:58;;;;;;;0.10;0.10;;;;;;;;;;5131447;28;20047;-52
2023/10/01 01:33:32;;;;;;;0.10;0.10;;;;;;;;;;5131389;28;20051;-50
2023/10/01 01:35:58;;;;;;;0.10;0.10;;;;;;;;;;5115059;28;20050;-50
2023/10/01 01:38:24;;;;;;;0.10;0.10;;;;;;;;;;5116023;28;20051;-51
2023/10/01 01:40:51;;;;;;;0.10;0.10;;;;;;;;;;5110555;28;20086;-51
2023/10/01 01:43:21;;;;;;;0.10;0.10;;;;;;;;;;5111857;28;20395;-52
2023/10/01 01:45:51;;;;;;;0.10;0.10;;;;;;;;;;5130445;27;20055;-51
2023/10/01 01:48:33;;;;;;;0.10;0.10;;;;;;;;;;5123746;27;20492;-52
2023/10/01 01:51:00;;;;;;;0.10;0.10;;;;;;;;;;5110177;28;20396;-51
2023/10/01 01:53:26;;;;;;;0.10;0.10;;;;;;;;;;5110349;28;20079;-51
2023/10/01 01:55:53;;;;;;;0.10;0.10;;;;;;;;;;5091517;28;20141;-52
2023/10/01 01:58:24;;;;;;;0.10;0.10;;;;;;;;;;5113821;27;20055;-51
2023/10/01 02:01:23;;;;;;;0.10;0.10;;;;;;;;;;5129744;27;20043;-51
2023/10/01 02:03:37;;;;;;;0.10;0.10;;;;;;;;;;5115426;28;20479;-52
2023/10/01 02:06:06;;;;;;;0.10;0.10;;;;;;;;;;5130920;28;20057;-52
2023/10/01 02:08:35;;;;;;;0.10;0.10;;;;;;;;;;5129795;28;20471;-51
2023/10/01 02:11:04;;;;;;;0.15;0.15;;;;;;;;;;5130143;28;20047;-51
2023/10/01 02:13:30;;;;;;;0.10;0.10;;;;;;;;;;5129427;28;20058;-50
2023/10/01 02:16:18;;;;;;;0.10;0.10;;;;;;;;;;5129991;28;20066;-52
2023/10/01 02:18:41;;;;;;;0.10;0.10;;;;;;;;;;5114050;28;20092;-51
2023/10/01 02:21:16;;;;;;;0.10;0.10;;;;;;;;;;5130156;28;20960;-51
2023/10/01 02:23:42;;;;;;;0.10;0.10;;;;;;;;;;5130379;28;20088;-52
2023/10/01 02:26:07;;;;;;;0.15;0.15;;;;;;;;;;5130873;28;20107;-51
2023/10/01 02:28:36;;;;;;;0.10;0.10;;;;;;;;;;5130391;28;20411;-52
2023/10/01 02:31:03;;;;;;;;;;;;;;;;;;5131134;28;20051;-51
2023/10/01 02:33:55;;;;;;;0.10;0.10;;;;;;;;;;5130473;28;19936;-51
2023/10/01 02:36:22;;;;;;;0.10;0.10;;;;;;;;;;5114724;28;20100;-52
2023/10/01 02:38:53;;;;;;;0.10;0.10;;;;;;;;;;5129411;28;20051;-51
2023/10/01 02:41:20;;;;;;;0.10;0.10;;;;;;;;;;5130524;28;20066;-52
2023/10/01 02:43:50;;;;;;;0.10;0.10;;;;;;;;;;5129441;28;20483;-51
2023/10/01 02:46:16;;;;;;;0.10;0.10;;;;;;;;;;5130356;28;20666;-52
2023/10/01 02:48:42;;;;;;;0.10;0.10;;;;;;;;;;5119172;28;20047;-51
2023/10/01 02:51:15;;;;;;;0.10;0.10;;;;;;;;;;5110239;28;20052;-49
2023/10/01 02:53:43;;;;;;;0.10;0.10;;;;;;;;;;5110075;28;20408;-51
2023/10/01 02:56:16;;;;;;;0.10;0.10;;;;;;;;;;5109276;28;20059;-52
2023/10/01 02:58:49;;;;;;;0.10;0.10;;;;;;;;;;5117002;27;20043;-52
2023/10/01 03:01:15;;;;;;;0.10;0.10;;;;;;;;;;5150861;27;20458;-51
2023/10/01 03:03:41;;;;;;;0.10;0.10;;;;;;;;;;5150864;27;20039;-50
2023/10/01 03:06:09;;;;;;;0.10;0.10;;;;;;;;;;5151536;27;20785;-52
2023/10/01 03:08:41;;;;;;;0.10;0.10;;;;;;;;;;5130812;27;20048;-52
2023/10/01 03:11:08;;;;;;;0.10;0.10;;;;;;;;;;5110769;28;20074;-52
2023/10/01 03:13:36;;;;;;;0.10;0.10;;;;;;;;;;5113146;28;20054;-51
2023/10/01 03:18:54;;;;;;;0.10;0.10;;;;;;;;;;5096901;28;20062;-51
2023/10/01 03:21:36;;;;;;;0.10;0.10;;;;;;;;;;5113135;28;20047;-51
2023/10/01 03:24:02;;;;;;;0.10;0.10;;;;;;;;;;5112758;28;20043;-52
2023/10/01 03:26:33;;;;;;;0.10;0.10;;;;;;;;;;5112921;28;20180;-52
2023/10/01 03:29:17;;;;;;;0.10;0.10;;;;;;;;;;5112912;28;20044;-50
2023/10/01 03:31:46;;;;;;;0.10;0.10;;;;;;;;;;5113106;28;20058;-52
2023/10/01 03:34:28;;;;;;;0.10;0.10;;;;;;;;;;5112972;28;20082;-50
2023/10/01 03:36:58;;;;;;;0.10;0.10;;;;;;;;;;5112450;28;20461;-52
2023/10/01 03:39:25;;;;;;;0.20;0.20;;;;;;;;;;5127631;28;20050;-52
2023/10/01 03:42:03;;;;;;;0.10;0.10;;;;;;;;;;5133161;27;20074;-51
2023/10/01 03:47:14;;;;;;;0.22;0.22;;;;;;;;;;5117363;28;20224;-51
2023/10/01 03:49:53;;;;;;;0.10;0.10;;;;;;;;;;5131897;27;20411;-52
2023/10/01 03:52:21;;;;;;;0.10;0.10;;;;;;;;;;5132529;28;20556;-51
2023/10/01 03:55:15;;;;;;;0.10;0.10;;;;;;;;;;5132563;28;20039;-52
2023/10/01 03:57:52;;;;;;;0.10;0.10;;;;;;;;;;5115970;27;20092;-51
2023/10/01 04:00:29;;;;;;;0.10;0.10;;;;;;;;;;5148126;27;20114;-52
2023/10/01 04:02:55;;;;;;;0.10;0.10;;;;;;;;;;5146638;27;20047;-51
2023/10/01 04:05:22;;;;;;;0.10;0.10;;;;;;;;;;5132374;28;20715;-51
2023/10/01 04:07:48;;;;;;;0.10;0.10;;;;;;;;;;5132237;28;20055;-52
2023/10/01 04:10:14;;;;;;;0.10;0.10;;;;;;;;;;5132498;28;20388;-52
2023/10/01 04:12:44;;;;;;;0.20;0.20;;;;;;;;;;5131741;28;20058;-51
2023/10/01 04:15:10;;;;;;;0.10;0.10;;;;;;;;;;5131735;28;20058;-51
2023/10/01 04:17:36;;;;;;;0.10;0.10;;;;;;;;;;5131588;28;20039;-50
2023/10/01 04:20:19;;;;;;;0.10;0.10;;;;;;;;;;5130747;28;20043;-51
2023/10/01 04:22:47;;;;;;;0.20;0.20;;;;;;;;;;5131003;27;20053;-52
2023/10/01 04:25:13;;;;;;;0.10;0.10;;;;;;;;;;5132016;28;20074;-50
2023/10/01 04:27:42;;;;;;;0.20;0.20;;;;;;;;;;5131975;28;20534;-51
2023/10/01 04:30:08;;;;;;;0.10;0.10;;;;;;;;;;5132186;28;20075;-52
2023/10/01 04:32:36;;;;;;;0.10;0.10;;;;;;;;;;5131967;28;20301;-51
2023/10/01 04:35:14;;;;;;;0.15;0.15;;;;;;;;;;5132115;28;20138;-51
2023/10/01 04:37:43;;;;;;;0.10;0.10;;;;;;;;;;5131303;28;20559;-51
2023/10/01 04:40:46;;;;;;;0.25;0.25;;;;;;;;;;5131966;28;20073;-51
2023/10/01 04:42:55;;;;;;;0.10;0.10;;;;;;;;;;5116333;28;20082;-52
2023/10/01 04:45:24;;;;;;;0.10;0.10;;;;;;;;;;5132048;28;20047;-51
2023/10/01 04:47:55;;;;;;;0.10;0.10;;;;;;;;;;5132111;28;20062;-51
2023/10/01 04:50:24;;;;;;;0.10;0.10;;;;;;;;;;5131423;28;20062;-51
2023/10/01 04:52:49;;;;;;;0.10;0.10;;;;;;;;;;5132185;28;20592;-52
2023/10/01 04:55:15;;;;;;;0.10;0.10;;;;;;;;;;5132342;28;20047;-52
2023/10/01 04:57:49;;;;;;;0.10;0.10;;;;;;;;;;5124559;27;20048;-51
2023/10/01 05:00:14;;;;;;;0.10;0.10;;;;;;;;;;5111959;28;20048;-51
2023/10/01 05:02:43;;;;;;;0.10;0.10;;;;;;;;;;5111521;28;20051;-51
2023/10/01 05:05:09;;;;;;;0.10;0.10;;;;;;;;;;5111645;28;20078;-51
2023/10/01 05:07:36;;;;;;;0.10;0.10;;;;;;;;;;5111513;28;20085;-52
2023/10/01 05:10:04;;;;;;;0.10;0.10;;;;;;;;;;5111703;28;20054;-52
2023/10/01 05:12:30;;;;;;;0.10;0.10;;;;;;;;;;5111541;28;20115;-50
2023/10/01 05:14:59;;;;;;;0.10;0.10;;;;;;;;;;5111763;28;20048;-52
2023/10/01 05:17:30;;;;;;;0.17;0.17;;;;;;;;;;5110221;28;20043;-51
2023/10/01 05:19:58;;;;;;;0.10;0.10;;;;;;;;;;5110586;28;20052;-52
2023/10/01 05:22:24;;;;;;;0.10;0.10;;;;;;;;;;5109854;28;20488;-52
2023/10/01 05:24:50;;;;;;;0.63;0.30;;;;;;;;;;5109657;28;20073;-51
2023/10/01 05:27:18;;;;;;;0.10;0.10;;;;;;;;;;5109896;28;20399;-51
2023/10/01 05:29:45;;;;;;;0.13;0.13;;;;;;;;;;5129233;28;20043;-51
2023/10/01 05:32:11;;;;;;;0.20;0.20;;;;;;;;;;5130820;28;20064;-51
2023/10/01 05:34:42;;;;;;;0.10;0.10;;;;;;;;;;5130085;27;20051;-52
2023/10/01 05:37:08;;;;;;;0.10;0.10;;;;;;;;;;5130490;28;20078;-51
2023/10/01 05:39:55;;;;;;;0.10;0.10;;;;;;;;;;5130455;28;20443;-51
2023/10/01 05:42:35;;;;;;;0.10;0.10;;;;;;;;;;5120225;28;20043;-52
2023/10/01 05:45:04;;;;;;;0.10;0.10;;;;;;;;;;5130654;28;20039;-52
2023/10/01 05:48:01;;;;;;;0.10;0.10;;;;;;;;;;5130240;28;20047;-52
2023/10/01 05:50:18;;;;;;;0.10;0.10;;;;;;;;;;5115175;28;20459;-51
2023/10/01 05:52:45;;;;;;;0.20;0.20;;;;;;;;;;5129922;28;20043;-51
2023/10/01 05:55:19;;;;;;;0.10;0.10;;;;;;;;;;5130658;28;20082;-51
2023/10/01 05:57:45;;;;;;;0.10;0.10;;;;;;;;;;5129093;27;20126;-51
2023/10/01 06:00:18;;;;;;;0.10;0.10;;;;;;;;;;5110357;28;20451;-51
2023/10/01 06:02:47;;;;;;;0.10;0.10;;;;;;;;;;5116138;28;20392;-52
2023/10/01 06:08:12;;;;;;;0.10;0.10;;;;;;;;;;5115336;28;20059;-52
2023/10/01 06:11:09;;;;;;;0.10;0.10;;;;;;;;;;5130888;28;20047;-51
2023/10/01 06:13:37;;;;;;;0.10;0.10;;;;;;;;;;5130932;28;20097;-50
2023/10/01 06:16:22;;;;;;;0.10;0.10;;;;;;;;;;5130625;28;20395;-52
2023/10/01 06:18:50;;;;;;;0.10;0.10;;;;;;;;;;5129991;28;20122;-51
2023/10/01 06:21:18;;;;;;;0.10;0.10;;;;;;;;;;5130812;28;20058;-52
2023/10/01 06:23:51;;;;;;;0.10;0.10;;;;;;;;;;5130352;28;20043;-51
2023/10/01 06:26:47;;;;;;;0.10;0.10;;;;;;;;;;5129944;28;20441;-52
2023/10/01 06:29:13;;;;;;;0.10;0.10;;;;;;;;;;5130380;28;20072;-51
2023/10/01 06:32:12;;;;;;;0.10;0.10;;;;;;;;;;5130647;28;20047;-52
2023/10/01 06:34:29;;;;;;;0.10;0.10;;;;;;;;;;5114708;28;20050;-51
2023/10/01 06:36:58;;;;;;;0.10;0.10;;;;;;;;;;5130014;28;20051;-51
2023/10/01 06:39:24;;;;;;;0.10;0.10;;;;;;;;;;5130105;28;20047;-52
2023/10/01 06:41:52;;;;;;;0.10;0.10;;;;;;;;;;5130383;28;20054;-51
2023/10/01 06:44:19;;;;;;;0.10;0.10;;;;;;;;;;5128982;28;20047;-52
2023/10/01 06:46:47;;;;;;;0.10;0.10;;;;;;;;;;5133888;27;20051;-51
2023/10/01 06:49:12;;;;;;;0.10;0.10;;;;;;;;;;5118363;27;20104;-51
2023/10/01 06:51:45;;;;;;;0.10;0.10;;;;;;;;;;5113479;28;20517;-51
2023/10/01 06:54:12;;;;;;;0.10;0.10;;;;;;;;;;5132644;28;20058;-51
2023/10/01 06:56:43;;;;;;;0.10;0.10;;;;;;;;;;5130084;28;20445;-51
2023/10/01 07:01:47;;;;;;;0.20;0.20;;;;;;;;;;5189984;27;20144;-50
2023/10/01 07:04:15;;;;;;;0.10;0.10;;;;;;;;;;5168480;27;20133;-52
2023/10/01 07:06:44;;;;;;;0.10;0.10;;;;;;;;;;5167912;27;20042;-52
2023/10/01 07:09:41;;;;;;;0.10;0.10;;;;;;;;;;5167667;27;20050;-51
2023/10/01 07:11:57;;;;;;;0.10;0.10;;;;;;;;;;5152410;27;20050;-51
2023/10/01 07:14:57;;;;;;;0.10;0.10;;;;;;;;;;5168135;27;20061;-52
2023/10/01 07:17:13;;;;;;;0.10;0.10;;;;;;;;;;5151922;27;20042;-51
2023/10/01 07:19:42;;;;;;;0.10;0.10;;;;;;;;;;5167006;27;20043;-52
2023/10/01 07:22:09;;;;;;;0.10;0.10;;;;;;;;;;5168276;27;20414;-51
2023/10/01 07:24:35;;;;;;;0.10;0.10;;;;;;;;;;5167482;27;20043;-52
2023/10/01 07:27:06;;;;;;;0.10;0.10;;;;;;;;;;5167663;27;20418;-51
2023/10/01 07:29:33;;;;;;;0.10;0.10;;;;;;;;;;5167351;27;20077;-52
2023/10/01 07:32:04;;;;;;;0.10;0.10;;;;;;;;;;5167623;27;20111;-52
2023/10/01 07:34:31;;;;;;;0.10;0.10;;;;;;;;;;5167770;27;20096;-52
2023/10/01 07:36:59;;;;;;;0.10;0.10;;;;;;;;;;5167559;27;20050;-50
2023/10/01 07:39:30;;;;;;;0.10;0.10;;;;;;;;;;5167382;27;20067;-50
2023/10/01 07:41:59;;;;;;;0.10;0.10;;;;;;;;;;5160906;27;20051;-51
2023/10/01 07:44:24;;;;;;;0.10;0.10;;;;;;;;;;5146875;27;20444;-50
2023/10/01 07:46:50;;;;;;;0.10;0.10;;;;;;;;;;5147471;27;20536;-51
2023/10/01 07:49:18;;;;;;;0.10;0.10;;;;;;;;;;5146311;27;20051;-51
2023/10/01 07:51:44;;;;;;;0.15;0.15;;;;;;;;;;5147603;27;20043;-52
2023/10/01 07:54:10;;;;;;;0.10;0.10;;;;;;;;;;5147432;27;20155;-52
2023/10/01 07:56:39;;;;;;;0.10;0.10;;;;;;;;;;5156120;27;20073;-50
2023/10/01 07:59:36;;;;;;;0.10;0.10;;;;;;;;;;5151370;27;20058;-52
2023/10/01 08:02:08;;;;;;;0.10;0.10;;;;;;;;;;5131801;27;20491;-51
2023/10/01 08:07:18;;;;;;;0.15;0.15;;;;;;;;;;5147188;27;20046;-50
2023/10/01 08:09:49;;;;;;;0.10;0.10;;;;;;;;;;5146122;27;20475;-51
2023/10/01 08:12:19;;;;;;;0.10;0.10;;;;;;;;;;5137841;27;20058;-50
2023/10/01 08:15:15;;;;;;;;;;;;;;;;;;5133232;28;20043;-50
2023/10/01 08:17:32;;;;;;;0.10;0.10;;;;;;;;;;5116682;28;20481;-51
2023/10/01 08:20:14;;;;;;;0.10;0.10;;;;;;;;;;5132858;28;20047;-51
2023/10/01 08:25:27;;;;;;;0.20;0.20;;;;;;;;;;5117410;28;20078;-48
2023/10/01 08:28:26;;;;;;;0.10;0.10;;;;;;;;;;5132618;28;20039;-49
2023/10/01 08:30:39;;;;;;;0.10;0.10;;;;;;;;;;5116873;28;20493;-50
2023/10/01 08:33:18;;;;;;;0.10;0.10;;;;;;;;;;5132776;28;20047;-46
2023/10/01 08:35:56;;;;;;;0.10;0.10;;;;;;;;;;5132852;28;20039;-50
2023/10/01 08:38:24;;;;;;;0.10;0.10;;;;;;;;;;5132086;28;20043;-49
2023/10/01 08:40:50;;;;;;;;;;;;;;;;;;5133163;28;20457;-47
2023/10/01 08:43:17;;;;;;;0.10;0.10;;;;;;;;;;5132455;27;20387;-49
2023/10/01 08:45:43;;;;;;;0.10;0.10;;;;;;;;;;5131709;28;20047;-51
2023/10/01 08:48:17;;;;;;;0.10;0.10;;;;;;;;;;5131114;28;20400;-51
2023/10/01 08:50:45;;;;;;;0.10;0.10;;;;;;;;;;5132002;28;20051;-51
2023/10/01 08:53:12;;;;;;;0.10;0.10;;;;;;;;;;5131990;28;20058;-51
2023/10/01 08:55:39;;;;;;;0.10;0.10;;;;;;;;;;5129369;27;20107;-48
2023/10/01 08:58:14;;;;;;;0.10;0.10;;;;;;;;;;5124716;28;20151;-51
2023/10/01 09:00:48;;;;;;;0.10;0.10;;;;;;;;;;5111484;28;20138;-50
2023/10/01 09:03:26;;;;;;;0.10;0.10;;;;;;;;;;5111290;28;20047;-50
2023/10/01 09:06:24;;;;;;;0.10;0.10;;;;;;;;;;5110334;28;20392;-50
2023/10/01 09:08:46;;;;;;;0.10;0.10;;;;;;;;;;5095143;28;20423;-50
2023/10/01 09:11:13;;;;;;;0.10;0.10;;;;;;;;;;5110852;28;20051;-50
2023/10/01 09:13:47;;;;;;;0.10;0.10;;;;;;;;;;5110824;28;20055;-50
2023/10/01 09:16:12;;;;;;;0.10;0.10;;;;;;;;;;5111082;28;20074;-51
2023/10/01 09:19:03;;;;;;;0.10;0.10;;;;;;;;;;5109706;28;20100;-51
2023/10/01 09:21:38;;;;;;;0.10;0.10;;;;;;;;;;5110995;28;20104;-51
2023/10/01 09:25:01;;;;;;;0.10;0.10;;;;;;;;;;5109328;28;20059;-51
2023/10/01 09:26:56;;;;;;;0.10;0.10;;;;;;;;;;5095504;28;20174;-51
2023/10/01 09:29:23;;;;;;;0.10;0.10;;;;;;;;;;5110296;28;20043;-51
2023/10/01 09:31:52;;;;;;;0.25;0.20;;;;;;;;;;5110868;28;20089;-50
2023/10/01 09:34:31;;;;;;;0.10;0.10;;;;;;;;;;5110645;28;20138;-51
2023/10/01 09:37:00;;;;;;;0.20;0.20;;;;;;;;;;5110685;28;20048;-51
2023/10/01 09:39:41;;;;;;;0.10;0.10;;;;;;;;;;5110347;28;20052;-50
2023/10/01 09:42:24;;;;;;;0.10;0.10;;;;;;;;;;5110600;28;20533;-51
2023/10/01 09:44:52;;;;;;;0.10;0.10;;;;;;;;;;5110568;28;20051;-50
2023/10/01 09:47:19;;;;;;;0.10;0.10;;;;;;;;;;5110652;28;20475;-50
2023/10/01 09:49:48;;;;;;;0.10;0.10;;;;;;;;;;5123986;28;20093;-51
2023/10/01 09:52:26;;;;;;;0.10;0.10;;;;;;;;;;5131372;28;20051;-50
2023/10/01 09:55:09;;;;;;;0.10;0.10;;;;;;;;;;5131104;28;20042;-51
2023/10/01 09:57:37;;;;;;;0.10;0.10;;;;;;;;;;5138826;27;20039;-51
2023/10/01 10:00:17;;;;;;;0.10;0.10;;;;;;;;;;5129579;27;20050;-50
2023/10/01 10:02:51;;;;;;;0.10;0.10;;;;;;;;;;5131007;28;20058;-51
2023/10/01 10:05:28;;;;;;;0.10;0.10;;;;;;;;;;5130692;27;20478;-50
2023/10/01 10:07:55;;;;;;;0.10;0.10;;;;;;;;;;5130017;27;20062;-50
2023/10/01 10:10:24;;;;;;;0.10;0.10;;;;;;;;;;5130949;28;20054;-51
2023/10/01 10:12:53;;;;;;;0.10;0.10;;;;;;;;;;5131007;27;20107;-50
2023/10/01 10:15:46;;;;;;;0.10;0.10;;;;;;;;;;5131384;27;20051;-50
2023/10/01 10:18:15;;;;;;;0.10;0.10;;;;;;;;;;5122818;28;20059;-51
2023/10/01 10:20:57;;;;;;;0.10;0.10;;;;;;;;;;5121767;28;20083;-51
2023/10/01 10:23:29;;;;;;;0.10;0.10;;;;;;;;;;5130849;28;20040;-50
2023/10/01 10:26:14;;;;;;;0.10;0.10;;;;;;;;;;5130798;28;20407;-51
2023/10/01 10:28:55;;;;;;;0.10;0.10;;;;;;;;;;5131002;28;20042;-51
2023/10/01 10:31:41;;;;;;;0.10;0.10;;;;;;;;;;5130757;28;20416;-51
2023/10/01 10:34:21;;;;;;;0.10;0.10;;;;;;;;;;5131004;27;20051;-47
2023/10/01 10:36:53;;;;;;;0.10;0.10;;;;;;;;;;5130657;28;20093;-51
2023/10/01 10:39:40;;;;;;;0.10;0.10;;;;;;;;;;5130183;28;20055;-51
2023/10/01 10:42:28;;;;;;;0.10;0.10;;;;;;;;;;5115717;28;20039;-50
2023/10/01 10:45:46;;;;;;;0.10;0.10;;;;;;;;;;5115942;28;20821;-51
2023/10/01 10:48:02;;;;;;;0.10;0.10;;;;;;;;;;5103409;28;20043;-51
2023/10/01 10:50:46;;;;;;;0.10;0.10;;;;;;;;;;5130542;28;20092;-51
2023/10/01 10:53:17;;;;;;;0.10;0.10;;;;;;;;;;5129711;27;20137;-50
2023/10/01 10:58:39;;;;;;;0.10;0.10;;;;;;;;;;5189246;27;20149;-50
2023/10/01 11:01:23;;;;;;;0.10;0.10;;;;;;;;;;5168227;27;20089;-51
2023/10/01 11:03:49;;;;;;;0.10;0.10;;;;;;;;;;5167452;27;20049;-50
2023/10/01 11:06:17;;;;;;;0.10;0.10;;;;;;;;;;5168117;27;20055;-50
2023/10/01 11:08:51;;;;;;;0.10;0.10;;;;;;;;;;5168252;27;20046;-51
2023/10/01 11:11:39;;;;;;;0.10;0.10;;;;;;;;;;5168128;27;20058;-52
2023/10/01 11:14:16;;;;;;;0.10;0.10;;;;;;;;;;5168026;27;20053;-49
2023/10/01 11:16:44;;;;;;;0.10;0.10;;;;;;;;;;5168303;27;20054;-49
2023/10/01 11:19:12;;;;;;;;;;;;;;;;;;5168084;27;20053;-49
2023/10/01 11:21:54;;;;;;;0.13;0.13;;;;;;;;;;5167662;27;19934;-51
2023/10/01 11:24:21;;;;;;;0.10;0.10;;;;;;;;;;5167746;27;20057;-51
2023/10/01 11:27:11;;;;;;;0.10;0.10;;;;;;;;;;5167696;27;20061;-51
2023/10/01 11:29:38;;;;;;;0.10;0.10;;;;;;;;;;5153192;27;20095;-51
2023/10/01 11:32:05;;;;;;;0.10;0.10;;;;;;;;;;5168107;27;20047;-51
2023/10/01 11:34:46;;;;;;;0.10;0.10;;;;;;;;;;5168614;27;20043;-50
2023/10/01 11:37:13;;;;;;;0.10;0.10;;;;;;;;;;5167172;27;20774;-51
2023/10/01 11:39:40;;;;;;;0.10;0.10;;;;;;;;;;5167284;27;20038;-51
2023/10/01 11:42:19;;;;;;;0.20;0.20;;;;;;;;;;5159248;27;20354;-51
2023/10/01 11:44:52;;;;;;;0.10;0.10;;;;;;;;;;5146892;27;20047;-51
2023/10/01 11:47:31;;;;;;;0.10;0.10;;;;;;;;;;5146330;27;20047;-50
2023/10/01 11:50:07;;;;;;;0.10;0.10;;;;;;;;;;5146737;27;20459;-51
2023/10/01 11:52:33;;;;;;;0.10;0.10;;;;;;;;;;5144949;27;20050;-51
2023/10/01 11:54:58;;;;;;;0.10;0.10;;;;;;;;;;5130623;27;20428;-49
2023/10/01 11:57:27;;;;;;;0.10;0.10;;;;;;;;;;5146618;27;20472;-50
2023/10/01 11:59:55;;;;;;;;;;;;;;;;;;5147931;27;20043;-49
2023/10/01 12:02:23;;;;;;;0.10;0.10;;;;;;;;;;5146636;27;19966;-51
2023/10/01 12:04:56;;;;;;;0.10;0.10;;;;;;;;;;5146569;27;20418;-49
2023/10/01 12:07:23;;;;;;;0.20;0.20;;;;;;;;;;5145798;27;20055;-51
2023/10/01 12:09:49;;;;;;;0.10;0.10;;;;;;;;;;5133527;27;20051;-50
2023/10/01 12:12:16;;;;;;;0.10;0.10;;;;;;;;;;5132646;28;20047;-51
2023/10/01 12:14:56;;;;;;;0.10;0.10;;;;;;;;;;5132743;28;20070;-51
2023/10/01 12:17:23;;;;;;;0.10;0.10;;;;;;;;;;5130373;28;20423;-50
2023/10/01 12:19:50;;;;;;;0.10;0.10;;;;;;;;;;5132092;28;20483;-51
2023/10/01 12:22:16;;;;;;;0.10;0.10;;;;;;;;;;5132680;28;20070;-50
2023/10/01 12:24:44;;;;;;;0.10;0.10;;;;;;;;;;5131792;28;20051;-51
2023/10/01 12:27:11;;;;;;;;;;;;;;;;;;5132690;28;20039;-51
2023/10/01 12:29:48;;;;;;;0.10;0.10;;;;;;;;;;5132170;28;19946;-51
2023/10/01 12:32:14;;;;;;;0.10;0.10;;;;;;;;;;5132306;28;20403;-50
2023/10/01 12:34:42;;;;;;;0.10;0.10;;;;;;;;;;5132097;28;20402;-51
2023/10/01 12:37:35;;;;;;;;;;;;;;;;;;5132483;28;20050;-50
2023/10/01 12:40:14;;;;;;;0.10;0.10;;;;;;;;;;5116901;28;19990;-51
2023/10/01 12:42:39;;;;;;;0.10;0.10;;;;;;;;;;5115643;28;20050;-51
2023/10/01 12:45:27;;;;;;;0.10;0.10;;;;;;;;;;5131774;28;20047;-51
2023/10/01 12:47:51;;;;;;;0.10;0.10;;;;;;;;;;5102124;28;20046;-51
2023/10/01 12:50:26;;;;;;;0.10;0.10;;;;;;;;;;5132556;28;20055;-51
2023/10/01 12:53:17;;;;;;;0.10;0.10;;;;;;;;;;5125772;28;20542;-52
2023/10/01 12:55:39;;;;;;;0.10;0.10;;;;;;;;;;5117109;28;20043;-51
2023/10/01 12:58:06;;;;;;;0.10;0.10;;;;;;;;;;5131874;28;20054;-51
2023/10/01 13:00:50;;;;;;;0.10;0.10;;;;;;;;;;5132650;28;20480;-51
2023/10/01 13:03:19;;;;;;;0.10;0.10;;;;;;;;;;5132720;28;20464;-51
2023/10/01 13:05:47;;;;;;;0.10;0.10;;;;;;;;;;5132869;28;20494;-50
2023/10/01 13:08:27;;;;;;;0.10;0.10;;;;;;;;;;5131892;28;20047;-51
2023/10/01 13:10:54;;;;;;;0.10;0.10;;;;;;;;;;5132833;28;20396;-51
2023/10/01 13:13:20;;;;;;;0.17;0.17;;;;;;;;;;5132616;28;20051;-50
2023/10/01 13:15:51;;;;;;;0.10;0.10;;;;;;;;;;5132928;28;20411;-50
2023/10/01 13:18:19;;;;;;;0.10;0.10;;;;;;;;;;5130859;28;20099;-51
2023/10/01 13:21:06;;;;;;;;;;;;;;;;;;5131702;27;20467;-51
2023/10/01 13:23:31;;;;;;;0.10;0.10;;;;;;;;;;5116971;28;20432;-49
2023/10/01 13:26:32;;;;;;;0.10;0.10;;;;;;;;;;5131814;28;20113;-51
2023/10/01 13:28:46;;;;;;;0.10;0.10;;;;;;;;;;5115516;28;20044;-51
2023/10/01 14:09:50;;;;;;;0.10;0.10;;;;;;;;;;5125230;28;20130;-51
2023/10/01 14:15:03;;;;;;;0.10;0.10;;;;;;;;;;5125464;28;20498;-51
2023/10/01 14:17:29;;;;;;;0.10;0.10;;;;;;;;;;5127520;27;20079;-51
2023/10/01 14:19:55;;;;;;;0.10;0.10;;;;;;;;;;5146329;27;20050;-49
2023/10/01 14:22:22;;;;;;;0.10;0.10;;;;;;;;;;5146598;27;20071;-50
2023/10/01 14:24:48;;;;;;;0.10;0.10;;;;;;;;;;5146928;27;20047;-51
2023/10/01 14:27:24;;;;;;;0.10;0.10;;;;;;;;;;5146631;27;20087;-51
2023/10/01 14:30:00;;;;;;;0.10;0.10;;;;;;;;;;5146478;27;20050;-51
2023/10/01 14:32:34;;;;;;;0.10;0.10;;;;;;;;;;5147345;27;20051;-51
2023/10/01 14:35:01;;;;;;;0.10;0.10;;;;;;;;;;5147302;27;20042;-51
2023/10/01 14:37:32;;;;;;;0.10;0.10;;;;;;;;;;5146656;27;20047;-49
2023/10/01 14:40:13;;;;;;;0.10;0.10;;;;;;;;;;5147132;27;20402;-50
2023/10/01 14:42:39;;;;;;;0.20;0.20;;;;;;;;;;5146831;27;20047;-47
2023/10/01 14:45:05;;;;;;;0.10;0.10;;;;;;;;;;5146439;27;20053;-51
2023/10/01 14:47:31;;;;;;;0.10;0.10;;;;;;;;;;5145937;27;20039;-51
2023/10/01 14:49:57;;;;;;;0.10;0.10;;;;;;;;;;5138209;27;20154;-51
2023/10/01 14:52:23;;;;;;;0.10;0.10;;;;;;;;;;5124449;27;20405;-51
2023/10/01 14:54:48;;;;;;;0.10;0.10;;;;;;;;;;5112410;28;20053;-51
2023/10/01 14:57:16;;;;;;;0.10;0.10;;;;;;;;;;5111731;28;20059;-51
2023/10/01 14:59:43;;;;;;;0.10;0.10;;;;;;;;;;5131283;28;20047;-51
2023/10/01 15:02:15;;;;;;;0.10;0.10;;;;;;;;;;5132991;28;20043;-50
2023/10/01 15:04:41;;;;;;;0.10;0.10;;;;;;;;;;5132992;28;20050;-50
2023/10/01 15:07:06;;;;;;;0.40;0.40;;;;;;;;;;5132810;28;20051;-50
2023/10/01 15:09:35;;;;;;;0.10;0.10;;;;;;;;;;5132480;28;20099;-51
2023/10/01 15:12:01;;;;;;;0.10;0.10;;;;;;;;;;5132627;28;20433;-50
2023/10/01 15:14:32;;;;;;;0.10;0.10;;;;;;;;;;5132382;28;21024;-51
2023/10/01 15:17:07;;;;;;;0.10;0.10;;;;;;;;;;5132542;28;20464;-50
2023/10/01 15:19:46;;;;;;;0.10;0.10;;;;;;;;;;5131471;28;20055;-49
2023/10/01 15:22:16;;;;;;;0.10;0.10;;;;;;;;;;5132139;28;20048;-51
2023/10/01 15:24:43;;;;;;;0.10;0.10;;;;;;;;;;5132763;28;20057;-51
2023/10/01 15:27:12;;;;;;;0.10;0.10;;;;;;;;;;5132428;28;20083;-50
2023/10/01 15:29:38;;;;;;;0.10;0.10;;;;;;;;;;5131429;28;20075;-49
2023/10/01 15:32:15;;;;;;;0.10;0.10;;;;;;;;;;5132605;27;20065;-51
2023/10/01 15:34:41;;;;;;;0.10;0.10;;;;;;;;;;5132487;28;20046;-51
2023/10/01 15:37:11;;;;;;;0.10;0.10;;;;;;;;;;5132022;28;20081;-51
2023/10/01 15:39:38;;;;;;;0.10;0.10;;;;;;;;;;5131504;28;20059;-51
2023/10/01 15:42:08;;;;;;;0.10;0.10;;;;;;;;;;5132302;27;20075;-51
2023/10/01 15:44:43;;;;;;;0.10;0.10;;;;;;;;;;5131990;28;20050;-51
2023/10/01 15:47:32;;;;;;;0.10;0.10;;;;;;;;;;5131923;28;20039;-51
2023/10/01 15:50:05;;;;;;;0.10;0.10;;;;;;;;;;5131594;28;20054;-50
2023/10/01 15:52:37;;;;;;;0.10;0.10;;;;;;;;;;5140498;27;20050;-51
2023/10/01 15:55:03;;;;;;;0.10;0.10;;;;;;;;;;5152193;27;20073;-51
2023/10/01 15:57:32;;;;;;;0.10;0.10;;;;;;;;;;5151355;27;20079;-51
2023/10/01 15:59:57;;;;;;;;;;;;;;;;;;5131796;28;20495;-52
2023/10/01 16:02:23;;;;;;;0.10;0.10;;;;;;;;;;5130591;27;20057;-51
2023/10/01 16:04:59;;;;;;;0.10;0.10;;;;;;;;;;5131537;28;20540;-51
2023/10/01 16:07:25;;;;;;;0.20;0.20;;;;;;;;;;5131124;28;20050;-51
2023/10/01 16:09:51;;;;;;;0.10;0.10;;;;;;;;;;5131179;28;20142;-51